Time;durP1;ratioP1;P1;durP2;ratioP2;P2;SDS_P1;SDS_P2;PMS_P1;PMS_P2;Temp;Humidity;BMP_temperature;BMP_pressure;BME280_temperature;BME280_humidity;BME280_pressure;Samples;Min_cycle;Max_cycle;Signal;HPM_P1;HPM_P2
2021/09/26 00:00:53;;;;;;;6.27;5.87;;;17.90;99.40;;;;;;5075479;28;20413;-65
2021/09/26 00:03:19;;;;;;;7.17;6.57;;;17.90;99.40;;;;;;5075557;28;20197;-63
2021/09/26 00:05:45;;;;;;;7.03;6.40;;;17.90;99.60;;;;;;5075469;28;20650;-64
2021/09/26 00:08:10;;;;;;;7.37;6.70;;;17.90;99.90;;;;;;5074923;28;20213;-64
2021/09/26 00:10:36;;;;;;;6.67;6.13;;;17.90;99.90;;;;;;5075388;28;20539;-64
2021/09/26 00:13:02;;;;;;;6.97;6.37;;;17.90;99.90;;;;;;5075400;28;20167;-64
2021/09/26 00:15:28;;;;;;;5.93;5.43;;;17.90;99.90;;;;;;5075263;28;20175;-64
2021/09/26 00:17:54;;;;;;;7.07;6.37;;;17.90;99.90;;;;;;5075339;28;20441;-64
2021/09/26 00:20:21;;;;;;;7.10;6.40;;;17.90;99.90;;;;;;5075173;28;20203;-64
2021/09/26 00:22:46;;;;;;;6.23;5.73;;;17.80;99.90;;;;;;5075150;28;20193;-64
2021/09/26 00:25:15;;;;;;;7.13;6.53;;;17.70;99.90;;;;;;5075146;28;20493;-64
2021/09/26 00:27:41;;;;;;;6.00;5.50;;;17.80;99.90;;;;;;5074977;28;20214;-64
2021/09/26 00:30:10;;;;;;;6.43;5.70;;;17.60;99.90;;;;;;5074571;28;20405;-64
2021/09/26 00:32:36;;;;;;;10.20;6.70;;;17.60;99.90;;;;;;5075215;28;20551;-64
2021/09/26 00:35:03;;;;;;;6.70;6.10;;;17.60;99.90;;;;;;5075158;28;20466;-64
2021/09/26 00:37:29;;;;;;;6.37;5.80;;;17.50;99.90;;;;;;5074848;28;20493;-64
2021/09/26 00:39:55;;;;;;;6.63;5.90;;;17.50;99.90;;;;;;5074481;28;20406;-64
2021/09/26 00:42:21;;;;;;;6.20;5.60;;;17.50;99.90;;;;;;5074752;28;20412;-63
2021/09/26 00:44:47;;;;;;;5.40;4.87;;;17.50;99.90;;;;;;5074678;28;20816;-64
2021/09/26 00:47:12;;;;;;;6.57;6.07;;;17.50;99.90;;;;;;5074744;28;20217;-64
2021/09/26 00:49:38;;;;;;;5.63;5.23;;;17.50;99.90;;;;;;5074361;28;20682;-64
2021/09/26 00:52:04;;;;;;;5.63;5.13;;;17.60;99.90;;;;;;5074587;28;20646;-64
2021/09/26 00:54:29;;;;;;;6.10;5.60;;;17.50;99.90;;;;;;5074801;28;20217;-64
2021/09/26 00:56:57;;;;;;;6.20;5.70;;;17.50;99.90;;;;;;5075033;28;20249;-64
2021/09/26 00:59:22;;;;;;;5.57;5.10;;;17.60;99.90;;;;;;5074016;28;20236;-64
2021/09/26 01:01:49;;;;;;;6.17;5.57;;;17.60;99.90;;;;;;5073009;28;20418;-64
2021/09/26 01:04:16;;;;;;;6.07;5.47;;;17.70;99.90;;;;;;5074476;28;20207;-64
2021/09/26 01:06:54;;;;;;;7.20;6.60;;;17.60;99.90;;;;;;5074350;28;20405;-64
2021/09/26 01:09:31;;;;;;;7.23;6.63;;;17.60;99.90;;;;;;5074445;28;20540;-65
2021/09/26 01:12:02;;;;;;;6.23;5.63;;;17.60;99.90;;;;;;5074174;28;20401;-62
2021/09/26 01:14:44;;;;;;;7.17;6.43;;;17.70;99.90;;;;;;5074248;28;20452;-62
2021/09/26 01:17:12;;;;;;;7.93;7.00;;;17.60;99.90;;;;;;5074232;28;20492;-65
2021/09/26 01:19:56;;;;;;;5.37;4.90;;;17.60;99.90;;;;;;5073665;28;20426;-64
2021/09/26 01:22:51;;;;;;;5.63;5.10;;;17.60;99.90;;;;;;5074107;28;20492;-63
2021/09/26 01:25:43;;;;;;;7.53;6.93;;;17.60;99.90;;;;;;5062571;28;20459;-62
2021/09/26 01:28:40;;;;;;;6.23;5.73;;;17.60;99.90;;;;;;5073498;28;20457;-62
2021/09/26 01:31:21;;;;;;;6.57;5.93;;;17.60;99.90;;;;;;5073909;28;20389;-62
2021/09/26 01:33:54;;;;;;;6.23;5.10;;;17.70;99.90;;;;;;5073967;28;20906;-63
2021/09/26 01:36:37;;;;;;;6.30;5.77;;;17.60;99.90;;;;;;5073911;28;20386;-62
2021/09/26 01:39:07;;;;;;;7.00;6.20;;;17.60;99.90;;;;;;5073303;28;20796;-63
2021/09/26 01:42:20;;;;;;;5.53;5.13;;;17.60;99.90;;;;;;5073666;28;20441;-63
2021/09/26 01:44:53;;;;;;;6.77;6.20;;;17.60;99.90;;;;;;5051391;28;20406;-62
2021/09/26 01:47:32;;;;;;;7.13;6.53;;;17.60;99.90;;;;;;5051145;28;20511;-63
2021/09/26 01:50:04;;;;;;;7.77;7.07;;;17.60;99.90;;;;;;5064486;28;20448;-63
2021/09/26 01:52:33;;;;;;;7.17;6.47;;;17.60;99.90;;;;;;5073417;28;20763;-62
2021/09/26 01:54:59;;;;;;;7.40;6.80;;;17.60;99.90;;;;;;5073388;28;20493;-62
2021/09/26 01:57:26;;;;;;;7.00;6.40;;;17.70;99.90;;;;;;5073295;28;20421;-64
2021/09/26 01:59:55;;;;;;;7.50;6.80;;;17.70;99.90;;;;;;5072986;28;20461;-62
2021/09/26 02:02:23;;;;;;;6.50;6.03;;;17.70;99.90;;;;;;5073355;28;20551;-62
2021/09/26 02:04:52;;;;;;;7.73;5.83;;;17.70;99.90;;;;;;5073335;28;20886;-62
2021/09/26 02:07:19;;;;;;;7.33;6.73;;;17.70;99.90;;;;;;5073214;28;20457;-63
2021/09/26 02:09:47;;;;;;;8.93;6.63;;;17.70;99.90;;;;;;5072663;28;20447;-62
2021/09/26 02:12:14;;;;;;;7.87;7.20;;;17.70;99.90;;;;;;5072750;28;20830;-62
2021/09/26 02:14:44;;;;;;;6.83;6.33;;;17.60;99.90;;;;;;5072959;28;20762;-62
2021/09/26 02:17:11;;;;;;;6.50;5.90;;;17.60;99.90;;;;;;5073281;28;20483;-62
2021/09/26 02:19:37;;;;;;;7.40;6.77;;;17.70;99.90;;;;;;5072572;28;20948;-62
2021/09/26 02:22:07;;;;;;;8.10;6.60;;;17.60;99.90;;;;;;5072877;28;20425;-62
2021/09/26 02:24:34;;;;;;;6.67;6.17;;;17.60;99.90;;;;;;5073318;28;20418;-63
2021/09/26 02:27:00;;;;;;;7.13;5.90;;;17.50;99.90;;;;;;5072724;28;20453;-64
2021/09/26 02:29:26;;;;;;;7.30;6.70;;;17.50;99.90;;;;;;5072690;28;20508;-62
2021/09/26 02:31:52;;;;;;;6.40;5.87;;;17.40;99.90;;;;;;5072767;28;20163;-62
2021/09/26 02:34:17;;;;;;;6.40;5.80;;;17.40;99.90;;;;;;5072682;28;20167;-62
2021/09/26 02:36:43;;;;;;;6.67;5.97;;;17.40;99.90;;;;;;5072658;28;20168;-62
2021/09/26 02:39:11;;;;;;;6.33;5.77;;;17.40;99.90;;;;;;5072111;28;20241;-64
2021/09/26 02:41:49;;;;;;;6.93;6.33;;;17.40;99.90;;;;;;5072493;28;20163;-65
2021/09/26 02:44:32;;;;;;;5.97;5.40;;;17.40;99.90;;;;;;5072559;28;20410;-62
2021/09/26 02:47:03;;;;;;;6.30;5.70;;;17.50;99.90;;;;;;5072483;28;20398;-62
2021/09/26 02:49:29;;;;;;;6.27;5.70;;;17.50;99.90;;;;;;5072088;28;20849;-62
2021/09/26 02:51:55;;;;;;;7.73;6.53;;;17.50;99.90;;;;;;5072254;28;20402;-63
2021/09/26 02:54:22;;;;;;;7.30;6.43;;;17.40;99.90;;;;;;5072221;28;20410;-65
2021/09/26 02:56:50;;;;;;;7.33;6.63;;;17.50;99.90;;;;;;5072333;28;20401;-62
2021/09/26 02:59:16;;;;;;;7.23;6.53;;;17.50;99.90;;;;;;5071863;28;20496;-62
2021/09/26 03:01:49;;;;;;;7.20;6.50;;;17.50;99.90;;;;;;5072143;28;20401;-63
2021/09/26 03:04:15;;;;;;;7.40;6.70;;;17.40;99.90;;;;;;5072149;28;20488;-62
2021/09/26 03:06:40;;;;;;;8.57;7.70;;;17.40;99.90;;;;;;5072066;28;20448;-62
2021/09/26 03:09:06;;;;;;;8.00;7.30;;;17.60;99.90;;;;;;5071649;28;20575;-62
2021/09/26 03:11:31;;;;;;;8.53;7.53;;;17.50;99.90;;;;;;5071925;28;20535;-64
2021/09/26 03:13:57;;;;;;;7.97;6.47;;;17.40;99.90;;;;;;5072114;28;20170;-62
2021/09/26 03:16:22;;;;;;;7.60;6.80;;;17.40;99.90;;;;;;5072061;28;20679;-62
2021/09/26 03:18:48;;;;;;;8.20;7.50;;;17.40;99.90;;;;;;5071562;28;20659;-62
2021/09/26 03:21:14;;;;;;;9.33;8.43;;;17.30;99.90;;;;;;5071915;28;20627;-64
2021/09/26 03:23:40;;;;;;;11.20;10.10;;;17.30;99.90;;;;;;5071776;28;20242;-62
2021/09/26 03:26:05;;;;;;;8.63;7.83;;;17.30;99.90;;;;;;5071464;28;20171;-62
2021/09/26 03:28:31;;;;;;;8.67;7.87;;;17.20;99.90;;;;;;5071435;28;20264;-62
2021/09/26 03:30:56;;;;;;;8.67;7.47;;;17.20;99.90;;;;;;5071807;28;20159;-63
2021/09/26 03:33:22;;;;;;;9.33;8.53;;;17.20;99.90;;;;;;5071733;28;20224;-62
2021/09/26 03:35:47;;;;;;;9.17;8.37;;;17.20;99.90;;;;;;5071967;28;20170;-62
2021/09/26 03:38:13;;;;;;;10.50;9.60;;;17.10;99.90;;;;;;5071294;28;20195;-62
2021/09/26 03:40:38;;;;;;;11.10;10.00;;;17.10;99.90;;;;;;5071722;28;20178;-63
2021/09/26 03:43:04;;;;;;;15.70;11.33;;;17.10;99.90;;;;;;5071800;28;20213;-62
2021/09/26 03:45:30;;;;;;;9.70;8.80;;;17.10;99.90;;;;;;5071766;28;20171;-62
2021/09/26 03:47:55;;;;;;;10.67;9.53;;;17.10;99.90;;;;;;5071320;28;20191;-65
2021/09/26 03:50:21;;;;;;;10.30;9.33;;;17.00;99.90;;;;;;5071382;28;20216;-62
2021/09/26 03:52:47;;;;;;;10.60;9.53;;;17.00;99.90;;;;;;5071637;28;20170;-63
2021/09/26 03:55:13;;;;;;;9.67;8.70;;;17.00;99.90;;;;;;5071680;28;20519;-62
2021/09/26 03:57:40;;;;;;;11.17;7.93;;;16.90;99.90;;;;;;5071584;28;20164;-62
2021/09/26 04:00:07;;;;;;;9.90;8.90;;;16.90;99.90;;;;;;5071735;28;20606;-63
2021/09/26 04:02:33;;;;;;;10.60;9.70;;;16.80;99.90;;;;;;5071508;28;20747;-62
2021/09/26 04:04:58;;;;;;;9.70;8.40;;;16.80;99.90;;;;;;5071672;28;20462;-62
2021/09/26 04:07:24;;;;;;;10.77;9.67;;;16.80;99.90;;;;;;5071250;28;20248;-62
2021/09/26 04:09:49;;;;;;;10.70;9.67;;;16.70;99.90;;;;;;5071081;28;20181;-63
2021/09/26 04:12:16;;;;;;;10.17;9.20;;;16.60;99.90;;;;;;5071491;28;20199;-62
2021/09/26 04:14:41;;;;;;;10.43;9.23;;;16.60;99.90;;;;;;5071437;28;20168;-65
2021/09/26 04:17:07;;;;;;;10.23;9.33;;;16.60;99.90;;;;;;5071340;28;20459;-63
2021/09/26 04:19:34;;;;;;;10.93;9.93;;;16.50;99.90;;;;;;5071074;28;20191;-62
2021/09/26 04:21:59;;;;;;;10.37;9.37;;;16.40;99.90;;;;;;5071434;28;20176;-62
2021/09/26 04:24:25;;;;;;;8.40;7.73;;;16.40;99.90;;;;;;5070091;28;20828;-62
2021/09/26 04:26:51;;;;;;;10.70;9.73;;;16.40;99.90;;;;;;5071230;28;20401;-62
2021/09/26 04:29:17;;;;;;;10.10;9.13;;;16.40;99.90;;;;;;5070919;28;20825;-62
2021/09/26 04:31:42;;;;;;;10.57;9.53;;;16.30;99.90;;;;;;5071128;28;20167;-64
2021/09/26 04:34:08;;;;;;;14.53;10.20;;;16.30;99.90;;;;;;5071315;28;20178;-62
2021/09/26 04:36:34;;;;;;;9.47;8.57;;;16.20;99.90;;;;;;5073173;28;20171;-62
2021/09/26 04:38:59;;;;;;;8.00;7.40;;;16.20;99.90;;;;;;5074716;28;20199;-62
2021/09/26 04:41:25;;;;;;;9.00;8.13;;;16.20;99.90;;;;;;5074825;28;20662;-63
2021/09/26 04:43:50;;;;;;;9.47;8.57;;;16.20;99.90;;;;;;5074815;28;20171;-62
2021/09/26 04:46:16;;;;;;;10.07;9.10;;;16.10;99.90;;;;;;5075254;28;20172;-63
2021/09/26 04:48:42;;;;;;;21.23;10.30;;;16.00;99.90;;;;;;5074289;28;20209;-62
2021/09/26 04:51:07;;;;;;;16.63;11.40;;;16.10;99.90;;;;;;5074601;28;20225;-62
2021/09/26 04:53:33;;;;;;;14.40;8.97;;;16.00;99.90;;;;;;5074676;28;20176;-65
2021/09/26 04:55:58;;;;;;;9.97;8.57;;;16.00;99.90;;;;;;5074633;28;20179;-62
2021/09/26 04:58:24;;;;;;;10.03;8.83;;;16.00;99.90;;;;;;5074219;28;20562;-62
2021/09/26 05:00:50;;;;;;;8.03;7.23;;;16.00;99.90;;;;;;5074405;28;20175;-63
2021/09/26 05:03:16;;;;;;;9.43;8.63;;;16.00;99.90;;;;;;5074440;28;20209;-62
2021/09/26 05:05:42;;;;;;;8.87;8.00;;;16.00;99.90;;;;;;5074348;28;20406;-63
2021/09/26 05:08:07;;;;;;;8.30;7.60;;;16.00;99.90;;;;;;5073967;28;20265;-62
2021/09/26 05:10:33;;;;;;;8.37;7.57;;;16.00;99.90;;;;;;5074379;28;20431;-62
2021/09/26 05:12:59;;;;;;;9.80;8.97;;;15.90;99.90;;;;;;5074281;28;20174;-62
2021/09/26 05:15:25;;;;;;;9.77;8.87;;;15.90;99.90;;;;;;5074229;28;20402;-62
2021/09/26 05:17:51;;;;;;;11.37;10.40;;;15.90;99.90;;;;;;5074329;28;20528;-62
2021/09/26 05:20:16;;;;;;;9.87;8.90;;;15.80;99.90;;;;;;5073859;28;20167;-63
2021/09/26 05:22:42;;;;;;;8.83;8.13;;;15.80;99.90;;;;;;5074063;28;20179;-65
2021/09/26 05:25:08;;;;;;;8.83;8.10;;;15.80;99.90;;;;;;5074107;28;20182;-62
2021/09/26 05:27:34;;;;;;;8.67;7.97;;;15.90;99.90;;;;;;5073856;28;20452;-64
2021/09/26 05:30:00;;;;;;;8.43;7.73;;;15.90;99.90;;;;;;5073609;28;20784;-62
2021/09/26 05:32:25;;;;;;;10.17;9.10;;;15.80;99.90;;;;;;5073908;28;20687;-62
2021/09/26 05:34:51;;;;;;;8.70;7.87;;;15.90;99.90;;;;;;5074079;28;20175;-63
2021/09/26 05:37:16;;;;;;;6.93;6.43;;;15.80;99.90;;;;;;5073939;28;20639;-62
2021/09/26 05:39:42;;;;;;;7.87;7.27;;;15.80;99.90;;;;;;5073416;28;20203;-62
2021/09/26 05:42:08;;;;;;;8.97;7.97;;;15.80;99.90;;;;;;5073697;28;20190;-62
2021/09/26 05:44:35;;;;;;;8.87;7.97;;;15.80;99.90;;;;;;5073935;28;20602;-62
2021/09/26 05:47:01;;;;;;;9.30;8.50;;;15.70;99.90;;;;;;5073131;28;20654;-64
2021/09/26 05:49:27;;;;;;;9.40;8.43;;;15.80;99.90;;;;;;5072869;28;20429;-64
2021/09/26 05:51:53;;;;;;;8.10;7.30;;;15.80;99.90;;;;;;5073854;28;20483;-62
2021/09/26 05:54:19;;;;;;;9.17;8.27;;;15.80;99.90;;;;;;5073560;28;20163;-62
2021/09/26 05:56:45;;;;;;;9.00;8.17;;;15.80;99.90;;;;;;5073518;28;20197;-65
2021/09/26 05:59:11;;;;;;;8.93;7.50;;;15.80;99.90;;;;;;5073020;28;20434;-62
2021/09/26 06:01:37;;;;;;;8.77;7.90;;;15.80;99.90;;;;;;5073248;28;20846;-62
2021/09/26 06:04:02;;;;;;;7.67;7.07;;;15.80;99.90;;;;;;5073336;28;20205;-62
2021/09/26 06:06:28;;;;;;;8.10;7.40;;;15.80;99.90;;;;;;5073265;28;20179;-63
2021/09/26 06:08:53;;;;;;;8.70;7.80;;;15.80;99.90;;;;;;5072632;28;20203;-65
2021/09/26 06:11:19;;;;;;;9.63;7.10;;;15.90;99.90;;;;;;5073195;28;20197;-62
2021/09/26 06:13:44;;;;;;;7.23;6.63;;;15.90;99.90;;;;;;5073157;28;20560;-62
2021/09/26 06:16:10;;;;;;;7.53;6.83;;;16.00;99.90;;;;;;5073057;28;20648;-63
2021/09/26 06:18:35;;;;;;;7.87;7.07;;;16.00;99.90;;;;;;5072559;28;20588;-65
2021/09/26 06:21:01;;;;;;;8.07;7.37;;;15.90;99.90;;;;;;5072934;28;20257;-62
2021/09/26 06:23:27;;;;;;;8.00;6.90;;;16.00;99.90;;;;;;5072933;28;20221;-62
2021/09/26 06:25:52;;;;;;;8.40;6.53;;;16.00;99.90;;;;;;5073037;28;20199;-62
2021/09/26 06:28:18;;;;;;;7.67;7.00;;;16.00;99.90;;;;;;5072371;28;20715;-62
2021/09/26 06:30:43;;;;;;;7.77;6.87;;;16.00;99.90;;;;;;5072758;28;20604;-62
2021/09/26 06:33:09;;;;;;;6.50;6.00;;;16.00;99.90;;;;;;5072756;28;20163;-62
2021/09/26 06:35:34;;;;;;;7.50;5.43;;;16.00;99.90;;;;;;5072842;28;20174;-63
2021/09/26 06:38:00;;;;;;;6.80;6.10;;;16.10;99.90;;;;;;5072261;28;20201;-62
2021/09/26 06:40:26;;;;;;;7.80;6.40;;;16.20;99.90;;;;;;5072576;28;20640;-62
2021/09/26 06:42:52;;;;;;;6.03;5.63;;;16.30;99.90;;;;;;5072562;28;20569;-62
2021/09/26 06:45:18;;;;;;;8.30;6.73;;;16.30;99.90;;;;;;5072547;28;20172;-62
2021/09/26 06:47:44;;;;;;;7.93;6.60;;;16.40;99.90;;;;;;5072303;28;20449;-62
2021/09/26 06:50:10;;;;;;;7.80;7.10;;;16.50;99.90;;;;;;5072176;28;20436;-62
2021/09/26 06:52:36;;;;;;;7.37;6.73;;;16.50;99.90;;;;;;5072726;28;20171;-62
2021/09/26 06:55:03;;;;;;;8.70;7.57;;;16.60;99.90;;;;;;5072356;28;20595;-62
2021/09/26 06:57:29;;;;;;;7.93;7.10;;;16.60;99.90;;;;;;5072114;28;20489;-65
2021/09/26 06:59:55;;;;;;;7.83;7.10;;;16.60;99.90;;;;;;5072086;28;20544;-62
2021/09/26 07:02:24;;;;;;;7.70;7.10;;;16.70;99.90;;;;;;5072260;28;20692;-62
2021/09/26 07:04:50;;;;;;;7.87;7.23;;;16.70;99.90;;;;;;5072406;28;20220;-63
2021/09/26 07:07:16;;;;;;;7.70;7.10;;;16.80;99.90;;;;;;5072102;28;20460;-64
2021/09/26 07:09:43;;;;;;;7.00;6.50;;;16.80;99.90;;;;;;5072265;28;20445;-62
2021/09/26 07:12:09;;;;;;;7.87;7.17;;;16.90;99.90;;;;;;5072012;28;20803;-62
2021/09/26 07:14:35;;;;;;;8.03;7.07;;;16.90;99.90;;;;;;5072099;28;20769;-62
2021/09/26 07:17:01;;;;;;;8.10;6.77;;;17.00;99.90;;;;;;5072007;28;20750;-62
2021/09/26 07:19:27;;;;;;;6.40;5.90;;;17.10;99.90;;;;;;5070276;28;20487;-62
2021/09/26 07:21:52;;;;;;;7.30;6.80;;;17.20;99.90;;;;;;5071915;28;20167;-63
2021/09/26 07:24:18;;;;;;;6.90;6.20;;;17.20;99.90;;;;;;5071944;28;20163;-63
2021/09/26 07:26:44;;;;;;;6.47;5.93;;;17.20;99.90;;;;;;5071880;28;20168;-62
2021/09/26 07:29:09;;;;;;;6.53;6.00;;;17.30;99.90;;;;;;5071741;28;20270;-62
2021/09/26 07:31:35;;;;;;;5.83;5.23;;;17.30;99.90;;;;;;5072002;28;20185;-63
2021/09/26 07:34:02;;;;;;;7.47;6.77;;;17.30;99.90;;;;;;5071742;28;20163;-63
2021/09/26 07:36:28;;;;;;;6.20;5.20;;;17.40;99.90;;;;;;5071918;28;20628;-62
2021/09/26 07:38:54;;;;;;;8.10;5.53;;;17.50;99.90;;;;;;5071458;28;20432;-62
2021/09/26 07:41:19;;;;;;;6.47;5.97;;;17.50;99.90;;;;;;5071672;28;20164;-62
2021/09/26 07:43:45;;;;;;;6.03;5.50;;;17.60;99.90;;;;;;5071779;28;20635;-62
2021/09/26 07:46:11;;;;;;;6.97;6.27;;;17.60;99.90;;;;;;5071766;28;20296;-64
2021/09/26 07:48:36;;;;;;;7.40;6.70;;;17.60;99.90;;;;;;5071223;28;20289;-62
2021/09/26 07:51:02;;;;;;;5.60;5.03;;;17.70;99.90;;;;;;5071654;28;20167;-62
2021/09/26 07:53:28;;;;;;;8.57;5.37;;;17.80;99.90;;;;;;5071593;28;20168;-62
2021/09/26 07:55:55;;;;;;;9.20;5.50;;;17.90;99.90;;;;;;5071637;28;20166;-63
2021/09/26 07:58:20;;;;;;;6.93;6.13;;;18.00;99.90;;;;;;5071486;28;20260;-63
2021/09/26 08:00:46;;;;;;;6.10;5.37;;;18.00;99.90;;;;;;5071480;28;20406;-62
2021/09/26 08:03:12;;;;;;;5.30;4.90;;;18.10;99.90;;;;;;5071728;28;20177;-62
2021/09/26 08:05:38;;;;;;;5.67;5.27;;;18.10;99.90;;;;;;5071593;28;20194;-63
2021/09/26 08:08:03;;;;;;;10.70;6.43;;;18.20;99.90;;;;;;5070973;28;20210;-62
2021/09/26 08:10:29;;;;;;;6.60;5.73;;;18.30;99.90;;;;;;5071816;28;20395;-62
2021/09/26 08:12:55;;;;;;;5.70;5.30;;;18.40;99.90;;;;;;5075464;28;20417;-62
2021/09/26 08:15:20;;;;;;;5.73;5.33;;;18.50;99.90;;;;;;5075448;28;20601;-62
2021/09/26 08:17:47;;;;;;;5.30;4.90;;;18.50;99.90;;;;;;5075180;28;20191;-62
2021/09/26 08:20:13;;;;;;;7.53;5.10;;;18.60;99.90;;;;;;5074998;28;20258;-63
2021/09/26 08:22:39;;;;;;;5.33;4.37;;;18.70;99.90;;;;;;5075383;28;20404;-62
2021/09/26 08:25:06;;;;;;;6.90;5.07;;;18.80;99.90;;;;;;5073889;28;20409;-62
2021/09/26 08:27:32;;;;;;;6.50;4.87;;;19.00;99.90;;;;;;5075283;28;20474;-63
2021/09/26 08:29:57;;;;;;;5.17;4.87;;;19.10;99.90;;;;;;5074665;28;20394;-62
2021/09/26 08:32:23;;;;;;;5.10;4.60;;;19.20;99.90;;;;;;5075043;28;20421;-62
2021/09/26 08:34:48;;;;;;;5.07;4.60;;;19.40;99.90;;;;;;5075054;28;20170;-63
2021/09/26 08:37:14;;;;;;;4.60;4.20;;;19.40;99.90;;;;;;5075044;28;20167;-62
2021/09/26 08:39:40;;;;;;;4.70;3.83;;;19.60;99.90;;;;;;5074408;28;20192;-63
2021/09/26 08:42:05;;;;;;;5.40;4.10;;;19.90;99.90;;;;;;5074852;28;20660;-62
2021/09/26 08:44:31;;;;;;;4.07;3.50;;;20.00;99.90;;;;;;5074809;28;20210;-63
2021/09/26 08:46:57;;;;;;;3.90;3.70;;;20.10;99.90;;;;;;5074713;28;20175;-66
2021/09/26 08:49:23;;;;;;;3.53;3.33;;;20.30;99.90;;;;;;5074328;28;20218;-62
2021/09/26 08:51:52;;;;;;;3.60;3.30;;;20.50;99.90;;;;;;5074714;28;20914;-63
2021/09/26 08:54:18;;;;;;;5.53;4.13;;;20.60;99.00;;;;;;5074597;28;20402;-63
2021/09/26 08:56:44;;;;;;;3.70;3.50;;;20.80;99.00;;;;;;5074590;28;20420;-64
2021/09/26 08:59:11;;;;;;;5.43;4.10;;;21.00;98.80;;;;;;5074214;28;20683;-63
2021/09/26 09:01:37;;;;;;;3.90;3.70;;;21.20;98.90;;;;;;5074446;28;20917;-63
2021/09/26 09:04:04;;;;;;;4.10;3.83;;;21.50;98.60;;;;;;5074502;28;20405;-63
2021/09/26 09:06:47;;;;;;;4.37;3.30;;;21.80;98.10;;;;;;5074476;28;20168;-66
2021/09/26 09:09:15;;;;;;;4.20;3.03;;;21.90;96.80;;;;;;5073878;28;20492;-63
2021/09/26 09:11:58;;;;;;;4.67;3.20;;;22.30;98.00;;;;;;5074325;28;20412;-63
2021/09/26 09:14:24;;;;;;;5.57;3.60;;;22.30;96.40;;;;;;5074376;28;20793;-64
2021/09/26 09:16:55;;;;;;;4.73;3.33;;;22.10;96.20;;;;;;5074318;28;20402;-64
2021/09/26 09:19:22;;;;;;;5.40;3.80;;;22.00;96.50;;;;;;5073787;28;20504;-63
2021/09/26 09:22:06;;;;;;;3.70;3.50;;;21.90;96.20;;;;;;5073602;28;20406;-66
2021/09/26 09:24:39;;;;;;;4.27;3.97;;;21.70;96.70;;;;;;5074003;28;20786;-63
2021/09/26 09:27:05;;;;;;;5.57;3.83;;;21.50;96.60;;;;;;5074080;28;20454;-63
2021/09/26 09:29:36;;;;;;;7.23;3.67;;;21.30;97.00;;;;;;5073622;28;20514;-63
2021/09/26 09:32:01;;;;;;;3.73;3.43;;;21.30;97.70;;;;;;5073951;28;20175;-63
2021/09/26 09:34:38;;;;;;;4.17;3.77;;;21.40;97.60;;;;;;5073989;28;20398;-63
2021/09/26 09:37:16;;;;;;;3.40;3.10;;;21.60;97.60;;;;;;5074139;28;20167;-63
2021/09/26 09:40:09;;;;;;;3.00;2.80;;;21.60;96.90;;;;;;5073564;28;20428;-63
2021/09/26 09:42:43;;;;;;;4.97;3.60;;;21.60;96.60;;;;;;5073824;28;20768;-63
2021/09/26 09:45:30;;;;;;;3.73;3.53;;;21.40;96.80;;;;;;5073642;28;20401;-63
2021/09/26 09:48:07;;;;;;;3.87;3.20;;;21.40;97.50;;;;;;5073559;28;20485;-64
2021/09/26 09:50:44;;;;;;;4.03;3.73;;;21.30;97.40;;;;;;5073547;28;20486;-66
2021/09/26 09:53:30;;;;;;;5.20;3.17;;;21.10;97.10;;;;;;5073568;28;20397;-63
2021/09/26 09:56:18;;;;;;;3.40;3.00;;;21.10;97.70;;;;;;5073551;28;20428;-64
2021/09/26 09:58:49;;;;;;;9.57;4.53;;;21.00;97.80;;;;;;5073041;28;20831;-63
2021/09/26 10:01:30;;;;;;;3.90;3.60;;;20.90;98.00;;;;;;5073340;28;20412;-66
2021/09/26 10:03:56;;;;;;;7.20;3.50;;;20.90;98.30;;;;;;5073308;28;20408;-63
2021/09/26 10:06:45;;;;;;;4.37;3.97;;;20.90;98.20;;;;;;5073776;28;20405;-63
2021/09/26 10:09:17;;;;;;;5.23;3.70;;;20.80;98.60;;;;;;5072612;28;20472;-63
2021/09/26 10:11:51;;;;;;;3.53;3.33;;;20.80;98.60;;;;;;5073172;28;20830;-64
2021/09/26 10:14:18;;;;;;;5.20;4.90;;;20.70;98.50;;;;;;5073146;28;20402;-63
2021/09/26 10:16:45;;;;;;;5.93;4.27;;;20.60;98.50;;;;;;5073262;28;20516;-63
2021/09/26 10:19:11;;;;;;;4.13;3.70;;;20.50;98.60;;;;;;5072809;28;20431;-63
2021/09/26 10:21:38;;;;;;;5.30;3.83;;;20.40;98.80;;;;;;5072964;28;20418;-63
2021/09/26 10:24:04;;;;;;;3.77;3.47;;;20.40;99.20;;;;;;5072902;28;20180;-66
2021/09/26 10:26:30;;;;;;;4.17;3.87;;;20.30;99.00;;;;;;5072959;28;20410;-63
2021/09/26 10:28:58;;;;;;;6.57;4.07;;;20.30;99.10;;;;;;5072415;28;20286;-66
2021/09/26 10:31:27;;;;;;;5.00;4.60;;;20.30;99.30;;;;;;5072758;28;20402;-63
2021/09/26 10:33:56;;;;;;;4.40;4.10;;;20.20;99.60;;;;;;5072549;28;20408;-63
2021/09/26 10:36:23;;;;;;;8.23;4.20;;;20.30;99.50;;;;;;5072522;28;20829;-63
2021/09/26 10:38:51;;;;;;;6.00;3.47;;;20.30;99.50;;;;;;5072290;28;20437;-63
2021/09/26 10:41:18;;;;;;;4.43;4.13;;;20.30;99.60;;;;;;5072477;28;20484;-63
2021/09/26 10:43:44;;;;;;;4.23;3.87;;;20.20;99.30;;;;;;5072676;28;20401;-63
2021/09/26 10:46:24;;;;;;;5.43;3.80;;;20.10;99.60;;;;;;5072603;28;20832;-63
2021/09/26 10:48:56;;;;;;;4.50;3.30;;;20.20;99.80;;;;;;5071955;28;20457;-63
2021/09/26 10:51:40;;;;;;;4.23;3.93;;;20.10;99.70;;;;;;5072407;28;20402;-63
2021/09/26 10:54:26;;;;;;;4.63;4.23;;;20.00;99.80;;;;;;5072409;28;20402;-63
2021/09/26 10:57:13;;;;;;;4.40;3.83;;;19.90;99.90;;;;;;5072854;28;20462;-63
2021/09/26 10:59:39;;;;;;;4.50;3.73;;;19.80;99.90;;;;;;5071742;28;20425;-65
2021/09/26 11:02:23;;;;;;;3.80;3.50;;;19.80;99.90;;;;;;5072273;28;20760;-63
2021/09/26 11:04:53;;;;;;;9.00;4.50;;;19.70;99.90;;;;;;5072274;28;20509;-66
2021/09/26 11:07:23;;;;;;;5.03;4.00;;;19.80;99.90;;;;;;5072138;28;20453;-63
2021/09/26 11:09:54;;;;;;;5.73;5.17;;;19.80;99.90;;;;;;5071670;28;20429;-63
2021/09/26 11:12:42;;;;;;;5.80;4.67;;;19.70;99.90;;;;;;5072298;28;20440;-63
2021/09/26 11:15:12;;;;;;;6.80;6.20;;;19.80;99.90;;;;;;5072129;28;20400;-63
2021/09/26 11:17:45;;;;;;;5.43;4.90;;;19.70;99.90;;;;;;5071924;28;20412;-68
2021/09/26 11:20:31;;;;;;;4.90;3.90;;;19.60;99.90;;;;;;5072073;28;20398;-63
2021/09/26 11:23:06;;;;;;;4.57;4.07;;;19.40;99.90;;;;;;5067975;28;20417;-63
2021/09/26 11:26:00;;;;;;;4.30;3.87;;;19.30;99.90;;;;;;5072019;28;20397;-63
2021/09/26 11:28:33;;;;;;;4.77;4.37;;;19.30;99.90;;;;;;5070435;28;20465;-63
2021/09/26 11:31:01;;;;;;;4.40;4.00;;;19.30;99.90;;;;;;5071923;28;20494;-63
2021/09/26 11:33:46;;;;;;;5.50;5.00;;;19.30;99.90;;;;;;5071929;28;20485;-65
2021/09/26 11:36:19;;;;;;;5.40;4.90;;;19.30;99.90;;;;;;5071726;28;20432;-63
2021/09/26 11:38:45;;;;;;;4.50;4.20;;;19.30;99.90;;;;;;5071402;28;20449;-65
2021/09/26 11:41:10;;;;;;;5.30;4.50;;;19.40;99.90;;;;;;5071712;28;20413;-63
2021/09/26 11:43:57;;;;;;;4.23;3.83;;;19.30;99.90;;;;;;5071819;28;20168;-63
2021/09/26 11:46:25;;;;;;;4.30;3.87;;;19.20;99.90;;;;;;5070620;28;20201;-63
2021/09/26 11:48:54;;;;;;;3.93;3.73;;;19.20;99.90;;;;;;5071269;28;20449;-66
2021/09/26 11:51:20;;;;;;;4.47;4.07;;;19.30;99.90;;;;;;5071486;28;20398;-63
2021/09/26 11:53:47;;;;;;;4.70;4.40;;;19.40;99.90;;;;;;5071943;28;20397;-63
2021/09/26 11:56:16;;;;;;;5.00;4.30;;;19.40;99.90;;;;;;5071577;28;20402;-65
2021/09/26 11:58:42;;;;;;;4.90;4.20;;;19.40;99.90;;;;;;5071432;28;20428;-63
2021/09/26 12:01:07;;;;;;;4.50;3.90;;;19.40;99.90;;;;;;5071571;28;20401;-63
2021/09/26 12:03:33;;;;;;;4.10;3.63;;;19.50;99.90;;;;;;5071632;28;20171;-66
2021/09/26 12:06:00;;;;;;;4.30;3.90;;;19.60;99.90;;;;;;5071516;28;20205;-63
2021/09/26 12:08:36;;;;;;;4.47;4.07;;;19.70;99.90;;;;;;5071132;28;20207;-63
2021/09/26 12:11:07;;;;;;;4.67;4.27;;;19.70;99.90;;;;;;5071431;28;20428;-63
2021/09/26 12:13:50;;;;;;;4.63;3.90;;;19.80;99.90;;;;;;5071578;28;20396;-63
2021/09/26 12:16:17;;;;;;;4.93;3.90;;;19.80;99.90;;;;;;5071495;28;21043;-63
2021/09/26 12:18:53;;;;;;;4.97;4.50;;;19.90;99.90;;;;;;5071073;28;20424;-63
2021/09/26 12:21:20;;;;;;;5.67;3.40;;;19.90;99.90;;;;;;5071465;28;20762;-63
2021/09/26 12:23:57;;;;;;;4.77;4.37;;;19.90;99.90;;;;;;5071523;28;20409;-63
2021/09/26 12:26:27;;;;;;;6.10;4.23;;;19.90;99.90;;;;;;5071389;28;20901;-63
2021/09/26 12:29:12;;;;;;;5.13;4.73;;;19.80;99.90;;;;;;5070887;28;20468;-63
2021/09/26 12:31:41;;;;;;;4.70;4.30;;;19.90;99.90;;;;;;5071452;28;20394;-63
2021/09/26 12:34:09;;;;;;;3.90;3.60;;;20.00;99.90;;;;;;5071276;28;20422;-63
2021/09/26 12:36:41;;;;;;;6.77;6.00;;;20.00;99.90;;;;;;5071375;28;20394;-63
2021/09/26 12:39:16;;;;;;;4.50;4.20;;;20.00;99.90;;;;;;5070885;28;20511;-66
2021/09/26 12:41:51;;;;;;;3.80;3.50;;;20.00;99.90;;;;;;5071172;28;20385;-63
2021/09/26 12:44:26;;;;;;;4.97;4.57;;;20.20;99.90;;;;;;5071354;28;20402;-64
2021/09/26 12:46:52;;;;;;;4.50;4.10;;;20.30;99.90;;;;;;5069842;28;20417;-63
2021/09/26 12:49:19;;;;;;;4.87;4.47;;;20.40;99.90;;;;;;5070737;28;20480;-63
2021/09/26 12:51:55;;;;;;;4.30;4.00;;;20.60;99.90;;;;;;5070957;28;20480;-66
2021/09/26 12:54:31;;;;;;;4.40;4.10;;;20.70;99.90;;;;;;5071241;28;20409;-63